Terminal Aerodrome Forecast
Issued by NWS Omaha/Valley, NE

Home | Current Version | Previous Version | Text Only | Print | Product List | Glossary Off
Versions: 1 2 3 4 5 6 7 8 9 10 11 12 13 14 15 16 17 18 19 20 21 22 23 24 25 26 27 28 29 30 31 32 33 34 35 36 37 38

000
FTUS43 KOAX 300903 AAB
TAFOFK
TAF AMD
KOFK 300903Z 3009/3106 18005KT 3/4SM BR OVC002
      TEMPO 3009/3013 1/4SM FG
     FM301400 17006KT 2SM BR BKN007
      TEMPO 3014/3018 P6SM NSW SCT010
     FM301800 18012G18KT P6SM SKC
     FM310000 16008KT P6SM SKC=

USA.gov is the U.S. government's official web portal to all federal, state and local government web resources and services.